Time;durP1;ratioP1;P1;durP2;ratioP2;P2;SDS_P1;SDS_P2;PMS_P1;PMS_P2;Temp;Humidity;BMP_temperature;BMP_pressure;BME280_temperature;BME280_humidity;BME280_pressure;Samples;Min_cycle;Max_cycle;Signal;HPM_P1;HPM_P2
2021/05/15 00:00:54;;;;;;;;;;;18.90;43.30;;;;;;5052508;28;75102;-70
2021/05/15 00:03:20;;;;;;;;;;;18.90;43.30;;;;;;5051847;28;74451;-66
2021/05/15 00:05:45;;;;;;;;;;;18.90;43.30;;;;;;5034118;28;75677;-67
2021/05/15 00:08:11;;;;;;;;;;;18.90;43.90;;;;;;5033898;28;77376;-69
2021/05/15 00:10:38;;;;;;;;;;;18.80;43.60;;;;;;5053003;28;75258;-67
2021/05/15 00:13:03;;;;;;;;;;;18.80;43.80;;;;;;5033769;28;76267;-69
2021/05/15 00:15:29;;;;;;;;;;;18.80;43.70;;;;;;5052695;28;75083;-67
2021/05/15 00:17:55;;;;;;;;;;;18.80;43.70;;;;;;5052305;28;75001;-66
2021/05/15 00:20:21;;;;;;;;;;;18.80;43.70;;;;;;5052646;28;75134;-67
2021/05/15 00:22:47;;;;;;;;;;;18.70;43.50;;;;;;5033936;28;75765;-65
2021/05/15 00:25:13;;;;;;;;;;;18.70;43.60;;;;;;5052356;28;74874;-65
2021/05/15 00:27:39;;;;;;;;;;;18.70;43.80;;;;;;5033983;28;75353;-65
2021/05/15 00:30:09;;;;;;;;;;;18.70;43.90;;;;;;5033607;28;75552;-65
2021/05/15 00:32:35;;;;;;;;;;;18.50;44.20;;;;;;5034107;28;74534;-68
2021/05/15 00:35:00;;;;;;;;;;;18.50;43.90;;;;;;5051718;28;75133;-68
2021/05/15 00:37:26;;;;;;;;;;;18.40;44.30;;;;;;5056362;28;75079;-66
2021/05/15 00:39:52;;;;;;;;;;;18.40;44.40;;;;;;5037331;28;74444;-67
2021/05/15 00:42:17;;;;;;;;;;;18.30;44.50;;;;;;5037192;28;76035;-66
2021/05/15 00:47:18;;;;;;;;;;;18.20;44.90;;;;;;5054068;28;75147;-66
2021/05/15 00:49:44;;;;;;;;;;;18.20;44.80;;;;;;5037129;28;78701;-66
2021/05/15 00:52:11;;;;;;;;;;;18.20;44.80;;;;;;5056219;28;74511;-66
2021/05/15 00:54:38;;;;;;;;;;;18.20;45.10;;;;;;5037151;28;76204;-68
2021/05/15 00:57:05;;;;;;;;;;;18.20;45.10;;;;;;5037244;28;76471;-66
2021/05/15 00:59:31;;;;;;;;;;;18.20;45.00;;;;;;5055331;28;75253;-66
2021/05/15 01:01:56;;;;;;;;;;;18.10;45.00;;;;;;5037199;28;75912;-66
2021/05/15 01:04:22;;;;;;;;;;;18.10;45.40;;;;;;5070327;27;74906;-66
2021/05/15 01:06:48;;;;;;;;;;;18.10;45.10;;;;;;5037031;28;75392;-66
2021/05/15 01:09:13;;;;;;;;;;;18.20;45.20;;;;;;5035937;28;75731;-67
2021/05/15 01:11:39;;;;;;;;;;;18.10;45.30;;;;;;5036661;28;75778;-68
2021/05/15 01:14:05;;;;;;;;;;;18.10;45.40;;;;;;5071334;27;77620;-70
2021/05/15 01:16:32;;;;;;;;;;;18.10;45.60;;;;;;5036355;28;95304;-65
2021/05/15 01:19:02;;;;;;;;;;;18.00;45.50;;;;;;5036738;28;77975;-69
2021/05/15 01:21:27;;;;;;;;;;;18.00;45.70;;;;;;5054758;28;75725;-68
2021/05/15 01:23:53;;;;;;;;;;;18.00;45.80;;;;;;5054607;28;75192;-69
2021/05/15 01:26:20;;;;;;;;;;;18.00;46.00;;;;;;5055039;28;75226;-69
2021/05/15 01:28:48;;;;;;;;;;;17.90;45.90;;;;;;5055019;28;75133;-68
2021/05/15 01:31:14;;;;;;;;;;;17.90;46.10;;;;;;5036623;28;77337;-70
2021/05/15 01:33:40;;;;;;;;;;;17.90;46.20;;;;;;5054413;28;74552;-69
2021/05/15 01:36:05;;;;;;;;;;;17.90;46.30;;;;;;5036366;28;75636;-69
2021/05/15 01:38:31;;;;;;;;;;;17.90;46.30;;;;;;5036322;28;77241;-69
2021/05/15 01:41:08;;;;;;;;;;;17.90;46.30;;;;;;5054980;28;75302;-69
2021/05/15 01:43:34;;;;;;;;;;;17.80;46.60;;;;;;5055068;28;74492;-68
2021/05/15 01:45:59;;;;;;;;;;;17.70;46.70;;;;;;5055031;28;74706;-70
2021/05/15 01:48:25;;;;;;;;;;;17.70;46.70;;;;;;5035076;28;77418;-70
2021/05/15 01:51:00;;;;;;;;;;;17.60;46.80;;;;;;5054506;28;75238;-69
2021/05/15 01:53:30;;;;;;;;;;;17.50;47.20;;;;;;5069345;27;77486;-67
2021/05/15 01:55:56;;;;;;;;;;;17.50;47.20;;;;;;5035717;28;75567;-66
2021/05/15 01:58:22;;;;;;;;;;;17.50;47.20;;;;;;5054704;28;74408;-65
2021/05/15 02:00:47;;;;;;;;;;;17.60;47.20;;;;;;5054378;28;75675;-65
2021/05/15 02:03:13;;;;;;;;;;;17.50;47.20;;;;;;5035870;28;77762;-67
2021/05/15 02:05:38;;;;;;;;;;;17.50;47.30;;;;;;5036001;28;77910;-66
2021/05/15 02:08:05;;;;;;;;;;;17.50;47.70;;;;;;5035497;28;77408;-66
2021/05/15 02:10:30;;;;;;;;;;;17.40;47.60;;;;;;5054676;28;74695;-66
2021/05/15 02:12:56;;;;;;;;;;;17.40;47.70;;;;;;5054441;28;74662;-68
2021/05/15 02:15:22;;;;;;;;;;;17.40;47.70;;;;;;5035092;28;77015;-65
2021/05/15 02:17:47;;;;;;;;;;;17.30;47.90;;;;;;5054394;28;75144;-68
2021/05/15 02:20:13;;;;;;;;;;;17.30;47.90;;;;;;5054114;28;74914;-68
2021/05/15 02:22:39;;;;;;;;;;;17.30;48.30;;;;;;5054323;28;74934;-65
2021/05/15 02:25:05;;;;;;;;;;;17.20;48.30;;;;;;5054379;28;74596;-65
2021/05/15 02:27:30;;;;;;;;;;;17.20;48.30;;;;;;5054444;28;74367;-65
2021/05/15 02:29:56;;;;;;;;;;;17.20;48.50;;;;;;5053663;28;75258;-66
2021/05/15 02:32:22;;;;;;;;;;;17.20;48.60;;;;;;5069399;27;77674;-66
2021/05/15 02:34:47;;;;;;;;;;;17.20;49.00;;;;;;5069235;27;76528;-66
2021/05/15 02:37:13;;;;;;;;;;;17.20;48.60;;;;;;5035136;28;75394;-66
2021/05/15 02:39:38;;;;;;;;;;;17.20;49.40;;;;;;5052029;28;75212;-66
2021/05/15 02:42:04;;;;;;;;;;;17.10;48.60;;;;;;5053822;28;74896;-66
2021/05/15 02:44:30;;;;;;;;;;;17.10;49.40;;;;;;5053967;28;74460;-66
2021/05/15 02:46:56;;;;;;;;;;;17.00;49.20;;;;;;5068289;27;74733;-66
2021/05/15 02:49:21;;;;;;;;;;;17.00;49.60;;;;;;5053409;28;75496;-66
2021/05/15 02:51:47;;;;;;;;;;;17.00;49.10;;;;;;5053619;28;75815;-66
2021/05/15 02:54:13;;;;;;;;;;;17.00;49.40;;;;;;5053345;28;75223;-65
2021/05/15 02:56:38;;;;;;;;;;;16.90;49.40;;;;;;5053630;28;75506;-66
2021/05/15 02:59:04;;;;;;;;;;;16.90;49.80;;;;;;5033763;28;75367;-68
2021/05/15 03:01:30;;;;;;;;;;;16.90;49.70;;;;;;5053654;28;75122;-68
2021/05/15 03:03:55;;;;;;;;;;;16.90;49.70;;;;;;5053452;28;75443;-65
2021/05/15 03:06:21;;;;;;;;;;;16.80;49.80;;;;;;5067952;27;77138;-66
2021/05/15 03:08:47;;;;;;;;;;;16.80;50.00;;;;;;5053269;28;75235;-65
2021/05/15 03:11:12;;;;;;;;;;;16.80;50.20;;;;;;5068713;27;77878;-65
2021/05/15 03:13:39;;;;;;;;;;;16.70;50.00;;;;;;5034770;28;75887;-65
2021/05/15 03:16:05;;;;;;;;;;;16.70;50.00;;;;;;5034485;28;75551;-65
2021/05/15 03:18:30;;;;;;;;;;;16.60;50.30;;;;;;5068639;27;77122;-65
2021/05/15 03:20:56;;;;;;;;;;;16.60;51.40;;;;;;5034940;28;76464;-65
2021/05/15 03:23:22;;;;;;;;;;;16.50;51.40;;;;;;5068407;27;78199;-65
2021/05/15 03:25:47;;;;;;;;;;;16.40;51.80;;;;;;5052520;28;74994;-65
2021/05/15 03:28:13;;;;;;;;;;;16.40;51.70;;;;;;5053133;28;75733;-65
2021/05/15 03:30:39;;;;;;;;;;;16.30;52.20;;;;;;5034831;28;76953;-65
2021/05/15 03:33:04;;;;;;;;;;;16.30;51.70;;;;;;5052922;28;74367;-65
2021/05/15 03:35:31;;;;;;;;;;;16.20;51.60;;;;;;5034546;28;77445;-70
2021/05/15 03:37:57;;;;;;;;;;;16.20;51.60;;;;;;5034726;28;77207;-68
2021/05/15 03:40:23;;;;;;;;;;;16.30;51.70;;;;;;5068323;27;75979;-69
2021/05/15 03:42:49;;;;;;;;;;;16.20;51.60;;;;;;5034687;28;75433;-70
2021/05/15 03:45:14;;;;;;;;;;;16.20;52.00;;;;;;5067323;27;76970;-68
2021/05/15 03:47:40;;;;;;;;;;;16.20;51.70;;;;;;5034391;28;74831;-67
2021/05/15 03:50:07;;;;;;;;;;;16.20;51.60;;;;;;5052519;28;75188;-66
2021/05/15 03:52:33;;;;;;;;;;;16.20;51.60;;;;;;5052895;28;75442;-69
2021/05/15 03:54:58;;;;;;;;;;;16.20;51.60;;;;;;5034232;28;75349;-65
2021/05/15 03:57:24;;;;;;;;;;;16.20;52.00;;;;;;5052727;28;75011;-64
2021/05/15 03:59:50;;;;;;;;;;;16.10;51.70;;;;;;5053045;28;75135;-64
2021/05/15 04:02:15;;;;;;;;;;;16.10;51.70;;;;;;5034053;28;75262;-64
2021/05/15 04:04:41;;;;;;;;;;;16.10;51.70;;;;;;5052491;28;75147;-65
2021/05/15 04:07:06;;;;;;;;;;;16.10;51.80;;;;;;5052878;28;74566;-65
2021/05/15 04:09:32;;;;;;;;;;;16.00;51.80;;;;;;5051506;28;74761;-65
2021/05/15 04:11:58;;;;;;;;;;;16.00;51.80;;;;;;5033573;28;75612;-68
2021/05/15 04:17:28;;;;;;;;;;;16.00;51.90;;;;;;5022742;28;75158;-66
2021/05/15 04:19:54;;;;;;;;;;;16.00;52.60;;;;;;5051998;28;75631;-67
2021/05/15 04:22:19;;;;;;;;;;;15.90;52.30;;;;;;5052276;28;75410;-65
2021/05/15 04:24:45;;;;;;;;;;;15.90;52.80;;;;;;5033597;28;77204;-65
2021/05/15 04:27:12;;;;;;;;;;;15.80;53.20;;;;;;5066551;27;76377;-67
2021/05/15 04:29:38;;;;;;;;;;;15.80;53.20;;;;;;5052523;28;75253;-65
2021/05/15 04:32:04;;;;;;;;;;;15.80;52.80;;;;;;5050534;28;75943;-66
2021/05/15 04:34:29;;;;;;;;;;;15.80;52.90;;;;;;5033851;28;75345;-67
2021/05/15 04:36:56;;;;;;;;;;;15.90;52.90;;;;;;5032945;28;74640;-66
2021/05/15 04:39:22;;;;;;;;;;;15.80;52.90;;;;;;5052786;28;74401;-69
2021/05/15 04:41:48;;;;;;;;;;;15.80;53.00;;;;;;5067686;27;78045;-66
2021/05/15 04:44:13;;;;;;;;;;;15.80;52.90;;;;;;5052603;28;74634;-69
2021/05/15 04:46:39;;;;;;;;;;;15.80;52.80;;;;;;5068174;27;75374;-70
2021/05/15 04:49:04;;;;;;;;;;;15.80;53.00;;;;;;5049010;28;75232;-69
2021/05/15 04:51:30;;;;;;;;;;;15.80;53.20;;;;;;5052238;28;75077;-67
2021/05/15 04:53:56;;;;;;;;;;;15.80;53.30;;;;;;5051953;28;74628;-72
2021/05/15 04:56:21;;;;;;;;;;;15.80;53.30;;;;;;5052088;28;75108;-71
2021/05/15 04:58:47;;;;;;;;;;;15.70;53.60;;;;;;5052115;28;75726;-68
2021/05/15 05:01:13;;;;;;;;;;;15.70;53.70;;;;;;5066777;27;77371;-69
2021/05/15 05:03:39;;;;;;;;;;;15.70;53.60;;;;;;5052083;28;74470;-67
2021/05/15 05:06:04;;;;;;;;;;;15.80;53.90;;;;;;5032054;28;75904;-66
2021/05/15 05:08:30;;;;;;;;;;;15.70;53.70;;;;;;5041155;28;77206;-66
2021/05/15 05:10:56;;;;;;;;;;;15.70;53.80;;;;;;5051533;28;75122;-65
2021/05/15 05:13:21;;;;;;;;;;;15.70;53.90;;;;;;5050289;28;78191;-67
2021/05/15 05:15:47;;;;;;;;;;;15.70;53.90;;;;;;5051965;28;75441;-66
2021/05/15 05:18:13;;;;;;;;;;;15.70;53.90;;;;;;5049281;28;77378;-67
2021/05/15 05:20:39;;;;;;;;;;;15.70;54.10;;;;;;5051568;28;75210;-71
2021/05/15 05:23:04;;;;;;;;;;;15.80;54.20;;;;;;5051160;27;75177;-69
2021/05/15 05:25:30;;;;;;;;;;;15.80;54.40;;;;;;5054865;28;75223;-67
2021/05/15 05:27:56;;;;;;;;;;;15.80;54.20;;;;;;5053034;28;75300;-66
2021/05/15 05:30:22;;;;;;;;;;;15.90;54.40;;;;;;5055096;28;75408;-65
2021/05/15 05:32:49;;;;;;;;;;;15.90;54.40;;;;;;5054971;28;75369;-66
2021/05/15 05:35:15;;;;;;;;;;;15.90;54.20;;;;;;5087166;27;75633;-68
2021/05/15 05:37:41;;;;;;;;;;;15.90;54.40;;;;;;5053573;28;75831;-70
2021/05/15 05:40:07;;;;;;;;;;;15.90;54.40;;;;;;5053337;28;77344;-68
2021/05/15 05:42:35;;;;;;;;;;;15.90;54.60;;;;;;5052702;28;77146;-69
2021/05/15 05:45:00;;;;;;;;;;;15.80;55.10;;;;;;5054511;28;75522;-70
2021/05/15 05:47:26;;;;;;;;;;;15.70;55.30;;;;;;5054931;28;75213;-68
2021/05/15 05:49:52;;;;;;;;;;;15.70;56.10;;;;;;5054592;28;75163;-64
2021/05/15 05:52:17;;;;;;;;;;;15.70;57.30;;;;;;5078795;27;76935;-64
2021/05/15 05:54:43;;;;;;;;;;;15.70;56.50;;;;;;5054384;28;74532;-64
2021/05/15 05:57:08;;;;;;;;;;;15.70;56.60;;;;;;5036016;28;75687;-65
2021/05/15 05:59:34;;;;;;;;;;;15.70;56.70;;;;;;5054767;28;75401;-62
2021/05/15 06:02:00;;;;;;;;;;;15.70;57.10;;;;;;5054815;28;75078;-64
2021/05/15 06:04:25;;;;;;;;;;;15.80;57.30;;;;;;5036038;28;75597;-67
2021/05/15 06:06:51;;;;;;;;;;;15.80;57.30;;;;;;5055274;28;74452;-65
2021/05/15 06:09:18;;;;;;;;;;;15.90;57.50;;;;;;5054092;27;75423;-63
2021/05/15 06:11:45;;;;;;;;;;;15.90;56.90;;;;;;5035906;28;77140;-64
2021/05/15 06:14:10;;;;;;;;;;;16.00;56.90;;;;;;5054484;28;74620;-67
2021/05/15 06:16:36;;;;;;;;;;;16.20;57.00;;;;;;5054836;28;74466;-67
2021/05/15 06:19:02;;;;;;;;;;;16.30;56.80;;;;;;5054430;28;75185;-69
2021/05/15 06:21:27;;;;;;;;;;;16.30;56.70;;;;;;5054093;28;75004;-65
2021/05/15 06:23:53;;;;;;;;;;;16.40;56.50;;;;;;5035772;28;77256;-66
2021/05/15 06:26:19;;;;;;;;;;;16.40;56.40;;;;;;5054246;28;75210;-68
2021/05/15 06:28:44;;;;;;;;;;;16.50;56.20;;;;;;5054623;28;74472;-62
2021/05/15 06:31:10;;;;;;;;;;;16.50;57.10;;;;;;5036151;28;78578;-65
2021/05/15 06:33:37;;;;;;;;;;;16.50;56.70;;;;;;5053916;28;74428;-63
2021/05/15 06:36:02;;;;;;;;;;;16.50;57.30;;;;;;5035713;28;77185;-62
2021/05/15 06:38:28;;;;;;;;;;;16.40;57.20;;;;;;5053762;28;74494;-63
2021/05/15 06:40:54;;;;;;;;;;;16.50;57.20;;;;;;5035629;28;76404;-62
2021/05/15 06:43:19;;;;;;;;;;;16.50;57.00;;;;;;5035519;28;76932;-63
2021/05/15 06:45:45;;;;;;;;;;;16.60;56.80;;;;;;5035651;28;76848;-63
2021/05/15 06:48:10;;;;;;;;;;;16.70;56.50;;;;;;5035319;28;76028;-63
2021/05/15 06:50:36;;;;;;;;;;;16.80;56.60;;;;;;5035277;28;76426;-62
2021/05/15 06:53:02;;;;;;;;;;;16.90;56.40;;;;;;5053955;28;75197;-64
2021/05/15 06:55:28;;;;;;;;;;;16.90;56.40;;;;;;5035106;28;78121;-63
2021/05/15 06:57:54;;;;;;;;;;;17.00;56.50;;;;;;5034667;28;74991;-64
2021/05/15 07:00:20;;;;;;;;;;;17.00;56.50;;;;;;5052926;28;74647;-64
2021/05/15 07:02:46;;;;;;;;;;;17.10;56.10;;;;;;5053807;28;76528;-63
2021/05/15 07:05:12;;;;;;;;;;;17.20;55.90;;;;;;5034949;28;77181;-64
2021/05/15 07:07:38;;;;;;;;;;;17.30;55.90;;;;;;5053751;28;75737;-65
2021/05/15 07:10:03;;;;;;;;;;;17.40;55.90;;;;;;5053766;28;75130;-66
2021/05/15 07:12:29;;;;;;;;;;;17.40;55.70;;;;;;5053511;28;76792;-64
2021/05/15 07:14:55;;;;;;;;;;;17.50;55.50;;;;;;5053343;28;75670;-63
2021/05/15 07:17:29;;;;;;;;;;;17.60;55.50;;;;;;5034741;28;78231;-65
2021/05/15 07:19:55;;;;;;;;;;;17.70;56.60;;;;;;5053295;28;74452;-68
2021/05/15 07:22:24;;;;;;;;;;;17.80;55.60;;;;;;5053444;28;75291;-64
2021/05/15 07:24:51;;;;;;;;;;;17.80;55.10;;;;;;5053188;28;75329;-64
2021/05/15 07:27:17;;;;;;;;;;;17.80;55.00;;;;;;5034894;28;77564;-66
2021/05/15 07:29:42;;;;;;;;;;;17.80;55.40;;;;;;5053328;28;74422;-64
2021/05/15 07:32:08;;;;;;;;;;;17.90;55.40;;;;;;5035113;28;77318;-66
2021/05/15 07:34:33;;;;;;;;;;;18.10;55.10;;;;;;5052673;28;75236;-64
2021/05/15 07:36:59;;;;;;;;;;;18.40;54.60;;;;;;5034606;28;74905;-70
2021/05/15 07:39:25;;;;;;;;;;;18.50;54.00;;;;;;5034907;28;77060;-69
2021/05/15 07:41:51;;;;;;;;;;;18.60;54.20;;;;;;5053009;28;75464;-68
2021/05/15 07:44:18;;;;;;;;;;;18.50;53.80;;;;;;5053079;28;75389;-65
2021/05/15 07:46:43;;;;;;;;;;;18.50;54.10;;;;;;5052058;28;75482;-67
2021/05/15 07:49:09;;;;;;;;;;;18.50;54.20;;;;;;5034318;28;76952;-68
2021/05/15 07:51:35;;;;;;;;;;;18.60;54.20;;;;;;5034552;28;75779;-70
2021/05/15 07:54:01;;;;;;;;;;;18.60;54.40;;;;;;5034526;28;75375;-64
2021/05/15 07:56:27;;;;;;;;;;;18.60;54.60;;;;;;5034511;28;77021;-70
2021/05/15 07:58:53;;;;;;;;;;;18.70;54.20;;;;;;5034206;28;75726;-68
2021/05/15 08:01:18;;;;;;;;;;;18.80;54.30;;;;;;5053007;28;74996;-74
2021/05/15 08:03:44;;;;;;;;;;;18.80;53.80;;;;;;5034064;28;75814;-76
2021/05/15 08:06:09;;;;;;;;;;;18.80;53.70;;;;;;5052982;28;75090;-77
2021/05/15 08:08:35;;;;;;;;;;;18.80;53.60;;;;;;5033634;28;77465;-65
2021/05/15 08:11:01;;;;;;;;;;;18.80;53.80;;;;;;5052902;28;75175;-62
2021/05/15 08:13:27;;;;;;;;;;;18.80;53.70;;;;;;5052779;28;74974;-63
2021/05/15 08:15:52;;;;;;;;;;;18.90;53.60;;;;;;5033975;28;77132;-63
2021/05/15 08:18:18;;;;;;;;;;;19.00;53.40;;;;;;5033608;28;75799;-64
2021/05/15 08:20:45;;;;;;;;;;;19.20;53.30;;;;;;5033688;28;77204;-64
2021/05/15 08:23:10;;;;;;;;;;;19.20;53.10;;;;;;5032450;28;75427;-63
2021/05/15 08:25:36;;;;;;;;;;;19.20;52.70;;;;;;5029869;28;76229;-63
2021/05/15 08:28:06;;;;;;;;;;;19.20;52.90;;;;;;5030497;28;77654;-64
2021/05/15 08:30:32;;;;;;;;;;;19.20;52.90;;;;;;5048357;27;75855;-64
2021/05/15 08:32:58;;;;;;;;;;;19.20;52.80;;;;;;5050162;28;75828;-62
2021/05/15 08:35:24;;;;;;;;;;;19.30;52.70;;;;;;5053722;27;74652;-63
2021/05/15 08:37:50;;;;;;;;;;;19.40;52.80;;;;;;5035345;28;75809;-64
2021/05/15 08:40:16;;;;;;;;;;;19.50;52.30;;;;;;5051810;28;75252;-65
2021/05/15 08:42:42;;;;;;;;;;;19.60;52.20;;;;;;5054625;27;75273;-62
2021/05/15 08:45:09;;;;;;;;;;;19.70;51.50;;;;;;5034300;28;78769;-63
2021/05/15 08:47:36;;;;;;;;;;;19.80;51.40;;;;;;5050805;28;75886;-62
2021/05/15 08:50:04;;;;;;;;;;;19.80;51.60;;;;;;5050963;28;75153;-64
2021/05/15 08:52:30;;;;;;;;;;;20.00;51.30;;;;;;5030949;28;77469;-65
2021/05/15 08:54:56;;;;;;;;;;;20.10;50.90;;;;;;5049677;28;75054;-63
2021/05/15 08:57:21;;;;;;;;;;;20.20;50.70;;;;;;5031979;28;76865;-67
2021/05/15 08:59:49;;;;;;;;;;;20.40;50.30;;;;;;5035087;28;77140;-63
2021/05/15 09:02:14;;;;;;;;;;;20.50;49.70;;;;;;5053476;28;75210;-62
2021/05/15 09:04:40;;;;;;;;;;;20.70;49.70;;;;;;5035645;28;75966;-65
2021/05/15 09:07:05;;;;;;;;;;;20.90;49.30;;;;;;5053931;28;75033;-63
2021/05/15 09:09:31;;;;;;;;;;;21.00;48.50;;;;;;5036008;28;78521;-63
2021/05/15 09:12:00;;;;;;;;;;;21.10;48.60;;;;;;5055855;28;74508;-66
2021/05/15 09:14:26;;;;;;;;;;;21.20;48.40;;;;;;5055537;28;75268;-65
2021/05/15 09:16:53;;;;;;;;;;;21.20;48.40;;;;;;5037007;28;76465;-63
2021/05/15 09:19:29;;;;;;;;;;;21.10;48.50;;;;;;5036420;28;75290;-64
2021/05/15 09:21:57;;;;;;;;;;;21.20;48.60;;;;;;5036863;28;77449;-63
2021/05/15 09:24:28;;;;;;;;;;;21.20;48.20;;;;;;5055200;28;75281;-64
2021/05/15 09:26:54;;;;;;;;;;;21.20;48.10;;;;;;5055543;28;74400;-65
2021/05/15 09:29:20;;;;;;;;;;;21.20;48.10;;;;;;5036487;28;76310;-63
2021/05/15 09:31:46;;;;;;;;;;;21.30;47.90;;;;;;5055220;28;74967;-63
2021/05/15 09:34:11;;;;;;;;;;;21.50;47.70;;;;;;5055388;28;74393;-68
2021/05/15 09:36:41;;;;;;;;;;;21.60;46.80;;;;;;5055102;28;75163;-63
2021/05/15 09:39:25;;;;;;;;;;;21.60;46.80;;;;;;5036829;28;74598;-65
2021/05/15 09:41:52;;;;;;;;;;;21.60;46.80;;;;;;5054791;28;75377;-69
2021/05/15 09:44:17;;;;;;;;;;;21.70;46.60;;;;;;5055235;28;74499;-69
2021/05/15 09:46:44;;;;;;;;;;;21.70;46.20;;;;;;5054807;28;75184;-66
2021/05/15 09:49:10;;;;;;;;;;;21.90;46.40;;;;;;5054702;28;75309;-67
2021/05/15 09:51:36;;;;;;;;;;;22.00;46.10;;;;;;5036410;28;77547;-68
2021/05/15 09:54:12;;;;;;;;;;;22.20;45.60;;;;;;5054586;28;75877;-67
2021/05/15 09:56:37;;;;;;;;;;;22.30;45.50;;;;;;5036123;28;74448;-67
2021/05/15 09:59:03;;;;;;;;;;;22.50;44.50;;;;;;5054522;28;75516;-65
2021/05/15 10:01:38;;;;;;;;;;;22.70;44.40;;;;;;5054601;28;75401;-67
2021/05/15 10:04:03;;;;;;;;;;;22.80;43.60;;;;;;5035717;28;75687;-69
2021/05/15 10:06:29;;;;;;;;;;;22.90;43.20;;;;;;5054414;28;75374;-65
2021/05/15 10:08:55;;;;;;;;;;;23.10;43.00;;;;;;5035139;28;76740;-64
2021/05/15 10:11:21;;;;;;;;;;;23.40;42.80;;;;;;5035594;28;77519;-70
2021/05/15 10:13:47;;;;;;;;;;;23.50;42.10;;;;;;5054546;28;75044;-70
2021/05/15 10:16:13;;;;;;;;;;;23.60;41.90;;;;;;5035512;28;76560;-68
2021/05/15 10:18:39;;;;;;;;;;;23.70;41.80;;;;;;5054612;28;75282;-69
2021/05/15 10:21:04;;;;;;;;;;;23.90;41.30;;;;;;5053929;28;75418;-69
2021/05/15 10:23:36;;;;;;;;;;;24.00;41.20;;;;;;5036076;28;74694;-68
2021/05/15 10:26:09;;;;;;;;;;;24.20;41.20;;;;;;5055245;28;74805;-68
2021/05/15 10:28:37;;;;;;;;;;;24.20;40.40;;;;;;5045866;28;75401;-68
2021/05/15 10:31:04;;;;;;;;;;;24.40;40.00;;;;;;5054318;28;75185;-64
2021/05/15 10:33:30;;;;;;;;;;;24.60;39.70;;;;;;5053853;28;75063;-68
2021/05/15 10:35:56;;;;;;;;;;;24.60;39.50;;;;;;5054025;28;74563;-69
2021/05/15 10:38:29;;;;;;;;;;;24.70;40.10;;;;;;5053673;28;75313;-64
2021/05/15 10:40:55;;;;;;;;;;;24.90;38.90;;;;;;5054064;28;74645;-68
2021/05/15 10:43:33;;;;;;;;;;;25.00;38.40;;;;;;5035312;28;77691;-68
2021/05/15 10:46:12;;;;;;;;;;;25.20;38.60;;;;;;5034840;28;77180;-68
2021/05/15 10:48:38;;;;;;;;;;;25.30;37.40;;;;;;5035187;28;77154;-64
2021/05/15 10:51:03;;;;;;;;;;;25.40;37.90;;;;;;5034657;28;77110;-68
2021/05/15 10:53:32;;;;;;;;;;;25.30;37.80;;;;;;5053783;28;75204;-67
2021/05/15 10:56:01;;;;;;;;;;;25.40;37.60;;;;;;5053411;28;75234;-64
2021/05/15 10:58:39;;;;;;;;;;;25.50;37.10;;;;;;5053587;28;75255;-64
2021/05/15 11:01:09;;;;;;;;;;;25.90;36.00;;;;;;5053553;28;75007;-64
2021/05/15 11:03:35;;;;;;;;;;;26.30;35.60;;;;;;5053549;28;75238;-67
2021/05/15 11:06:11;;;;;;;;;;;26.60;34.30;;;;;;5053565;28;75165;-65
2021/05/15 11:08:37;;;;;;;;;;;26.60;35.50;;;;;;5053021;28;75547;-66
2021/05/15 11:11:06;;;;;;;;;;;26.90;34.70;;;;;;5035216;28;75736;-67
2021/05/15 11:13:44;;;;;;;;;;;27.40;34.60;;;;;;5053063;28;75196;-65
2021/05/15 11:16:09;;;;;;;;;;;27.80;33.40;;;;;;5053903;28;74515;-65
2021/05/15 11:18:36;;;;;;;;;;;28.10;33.90;;;;;;5053436;28;75215;-69
2021/05/15 11:21:04;;;;;;;;;;;28.70;32.40;;;;;;5052262;27;75583;-65
2021/05/15 11:23:30;;;;;;;;;;;29.10;31.60;;;;;;5053157;28;75657;-64
2021/05/15 11:25:59;;;;;;;;;;;29.20;31.60;;;;;;5034785;28;76455;-66
2021/05/15 11:28:26;;;;;;;;;;;28.60;31.70;;;;;;5053363;28;75774;-64
2021/05/15 11:30:52;;;;;;;;;;;28.70;32.50;;;;;;5052846;28;75133;-63
2021/05/15 11:33:18;;;;;;;;;;;30.10;30.60;;;;;;5053021;28;75548;-66
2021/05/15 11:35:48;;;;;;;;;;;31.70;29.00;;;;;;5052794;28;75191;-71
2021/05/15 11:38:13;;;;;;;;;;;32.90;27.90;;;;;;5053182;28;75804;-68
2021/05/15 11:40:45;;;;;;;;;;;33.30;26.90;;;;;;5034720;28;75300;-69
2021/05/15 11:43:11;;;;;;;;;;;33.30;26.80;;;;;;5052746;28;75635;-70
2021/05/15 11:45:37;;;;;;;;;;;33.70;26.40;;;;;;5034915;28;77836;-70
2021/05/15 11:48:22;;;;;;;;;;;34.30;25.00;;;;;;5034575;28;78452;-69
2021/05/15 11:51:09;;;;;;;;;;;33.90;25.80;;;;;;5034130;28;77351;-64
2021/05/15 11:53:35;;;;;;;;;;;34.30;25.40;;;;;;5052709;28;75312;-66
2021/05/15 11:56:01;;;;;;;;;;;34.90;24.40;;;;;;5052707;28;74991;-63
2021/05/15 11:58:26;;;;;;;;;;;35.20;23.80;;;;;;5052902;28;74630;-66
2021/05/15 12:00:52;;;;;;;;;;;35.20;24.40;;;;;;5052770;28;74602;-63
2021/05/15 12:03:25;;;;;;;;;;;35.70;24.30;;;;;;5053292;28;75542;-64
2021/05/15 12:05:51;;;;;;;;;;;35.90;23.50;;;;;;5032746;28;76727;-66
2021/05/15 12:08:18;;;;;;;;;;;36.30;22.90;;;;;;5015071;28;75460;-63
2021/05/15 12:10:45;;;;;;;;;;;35.80;22.90;;;;;;5051894;28;75467;-66
2021/05/15 12:13:12;;;;;;;;;;;35.20;24.30;;;;;;5052365;28;75080;-66
2021/05/15 12:15:38;;;;;;;;;;;36.40;23.00;;;;;;5052395;28;75088;-69
2021/05/15 12:18:04;;;;;;;;;;;37.50;22.10;;;;;;5052424;28;75337;-69
2021/05/15 12:20:36;;;;;;;;;;;38.60;20.70;;;;;;5033445;28;77080;-68
2021/05/15 12:23:22;;;;;;;;;;;38.30;21.40;;;;;;5033587;28;77642;-67
2021/05/15 12:26:01;;;;;;;;;;;38.10;21.50;;;;;;5033584;28;75992;-67
2021/05/15 12:28:28;;;;;;;;;;;37.40;21.40;;;;;;5033831;28;77507;-68
2021/05/15 12:30:54;;;;;;;;;;;37.90;21.30;;;;;;5052568;27;75178;-66
2021/05/15 12:33:21;;;;;;;;;;;39.00;19.40;;;;;;5055213;28;75342;-64
2021/05/15 12:36:04;;;;;;;;;;;38.70;19.80;;;;;;5056102;28;74451;-64
2021/05/15 12:38:31;;;;;;;;;;;39.10;20.20;;;;;;5037358;28;77226;-62
2021/05/15 12:41:10;;;;;;;;;;;39.10;20.50;;;;;;5055291;28;74669;-64
2021/05/15 12:43:41;;;;;;;;;;;39.60;20.60;;;;;;5037717;28;75582;-64
2021/05/15 12:46:08;;;;;;;;;;;40.30;19.60;;;;;;5037286;28;75882;-64
2021/05/15 12:48:39;;;;;;;;;;;40.30;19.40;;;;;;5056287;28;75640;-66
2021/05/15 12:51:06;;;;;;;;;;;40.60;19.50;;;;;;5055804;28;75217;-66
2021/05/15 12:53:32;;;;;;;;;;;40.90;18.40;;;;;;5055635;28;75923;-66
2021/05/15 12:55:58;;;;;;;;;;;41.00;19.20;;;;;;5055664;28;75098;-65
2021/05/15 12:58:24;;;;;;;;;;;42.10;18.30;;;;;;5037340;28;76477;-65
2021/05/15 13:00:53;;;;;;;;;;;42.60;18.00;;;;;;5037752;28;75244;-67
2021/05/15 13:03:21;;;;;;;;;;;42.70;17.00;;;;;;5055851;28;74687;-66
2021/05/15 13:05:47;;;;;;;;;;;43.00;17.10;;;;;;5037275;28;77627;-63
2021/05/15 13:08:16;;;;;;;;;;;43.10;16.50;;;;;;5036897;28;75083;-66
2021/05/15 13:10:42;;;;;;;;;;;43.80;17.10;;;;;;5055929;28;75096;-66
2021/05/15 13:13:08;;;;;;;;;;;44.40;16.80;;;;;;5037218;28;76908;-64
2021/05/15 13:15:34;;;;;;;;;;;43.90;16.70;;;;;;5055185;28;74656;-64
2021/05/15 13:18:12;;;;;;;;;;;43.00;17.10;;;;;;5055586;28;75156;-64
2021/05/15 13:20:38;;;;;;;;;;;41.90;17.40;;;;;;5055182;28;74486;-63
2021/05/15 13:23:03;;;;;;;;;;;42.00;17.90;;;;;;5055414;28;75050;-66
2021/05/15 13:25:29;;;;;;;;;;;41.90;18.20;;;;;;5036534;28;76087;-65
2021/05/15 13:27:55;;;;;;;;;;;42.00;17.70;;;;;;5035625;28;75212;-66
2021/05/15 13:30:21;;;;;;;;;;;42.00;18.30;;;;;;5036855;28;77524;-65
2021/05/15 13:32:47;;;;;;;;;;;42.90;17.40;;;;;;5055183;28;75228;-63
2021/05/15 13:35:12;;;;;;;;;;;43.10;17.30;;;;;;5054777;28;75277;-64
2021/05/15 13:37:38;;;;;;;;;;;43.00;17.20;;;;;;5055249;28;75318;-62
2021/05/15 13:40:04;;;;;;;;;;;43.10;17.70;;;;;;5055762;28;74486;-66
2021/05/15 13:42:29;;;;;;;;;;;43.90;17.00;;;;;;5054481;27;75310;-64
2021/05/15 13:44:55;;;;;;;;;;;44.20;16.60;;;;;;5035896;28;76650;-69
2021/05/15 13:47:21;;;;;;;;;;;44.90;16.60;;;;;;5035247;28;77234;-68
2021/05/15 13:49:47;;;;;;;;;;;45.00;16.60;;;;;;5054869;28;75806;-68
2021/05/15 13:52:13;;;;;;;;;;;44.80;15.70;;;;;;5036143;28;75110;-64
2021/05/15 13:54:38;;;;;;;;;;;44.40;16.70;;;;;;5054564;28;75528;-66
2021/05/15 13:57:04;;;;;;;;;;;44.60;16.50;;;;;;5055216;28;74520;-65
2021/05/15 13:59:30;;;;;;;;;;;44.90;16.20;;;;;;5054590;28;75560;-70
2021/05/15 14:01:55;;;;;;;;;;;45.30;16.20;;;;;;5054928;28;74503;-68
2021/05/15 14:04:21;;;;;;;;;;;45.60;16.40;;;;;;5054473;28;75405;-64
2021/05/15 14:06:47;;;;;;;;;;;46.50;15.70;;;;;;5054416;28;74537;-66
2021/05/15 14:09:13;;;;;;;;;;;46.70;15.90;;;;;;5054058;28;74632;-68
2021/05/15 14:11:38;;;;;;;;;;;46.80;15.60;;;;;;5035482;28;77995;-65
2021/05/15 14:14:04;;;;;;;;;;;46.20;15.40;;;;;;5054333;28;75690;-65
2021/05/15 14:16:30;;;;;;;;;;;45.20;16.20;;;;;;5034858;28;75939;-69
2021/05/15 14:18:55;;;;;;;;;;;44.10;16.80;;;;;;5035947;28;76256;-68